Time;durP1;ratioP1;P1;durP2;ratioP2;P2;SDS_P1;SDS_P2;PMS_P1;PMS_P2;Temp;Humidity;BMP_temperature;BMP_pressure;BME280_temperature;BME280_humidity;BME280_pressure;Samples;Min_cycle;Max_cycle;Signal;HPM_P1;HPM_P2
2021/03/28 00:02:50;;;;;;;35.95;5.40;;;;;;;2.33;89.44;102531.84;4981206;28;20512;-77
2021/03/28 00:05:22;;;;;;;29.95;4.80;;;;;;;2.30;89.68;102533.72;4971976;28;20092;-76
2021/03/28 00:07:56;;;;;;;28.33;5.03;;;;;;;2.33;89.59;102526.69;4986683;28;20061;-79
2021/03/28 00:10:39;;;;;;;31.30;6.13;;;;;;;2.29;89.48;102524.25;5026541;28;20037;-80
2021/03/28 00:13:13;;;;;;;20.70;5.45;;;;;;;2.41;89.35;102529.03;5003532;28;20049;-79
2021/03/28 00:15:43;;;;;;;31.77;5.32;;;;;;;2.39;89.03;102525.63;4990835;28;20085;-75
2021/03/28 00:18:14;;;;;;;33.20;6.45;;;;;;;2.39;89.09;102517.88;5018249;28;20077;-76
2021/03/28 00:20:41;;;;;;;27.92;5.97;;;;;;;2.40;89.43;102522.16;4978358;28;20120;-78
2021/03/28 00:23:19;;;;;;;25.55;5.18;;;;;;;2.37;89.06;102524.84;4989416;28;20132;-79
2021/03/28 00:25:51;;;;;;;27.38;5.68;;;;;;;2.52;88.44;102533.84;5018317;28;20045;-78
2021/03/28 00:28:45;;;;;;;25.80;4.82;;;;;;;2.47;88.66;102528.84;5028608;28;20349;-79
2021/03/28 00:31:29;;;;;;;28.30;4.88;;;;;;;2.46;88.68;102532.31;5027168;28;20049;-77
2021/03/28 00:34:01;;;;;;;27.33;5.45;;;;;;;2.48;88.49;102527.09;4993647;28;20071;-79
2021/03/28 00:36:36;;;;;;;28.33;5.38;;;;;;;2.47;88.48;102526.25;5021658;28;20074;-80
2021/03/28 00:39:08;;;;;;;33.50;5.15;;;;;;;2.47;87.82;102534.03;4996631;28;20053;-79
2021/03/28 00:41:40;;;;;;;31.65;5.20;;;;;;;2.46;88.12;102527.13;5022146;28;20103;-77
2021/03/28 00:44:16;;;;;;;26.50;5.18;;;;;;;2.39;87.99;102530.81;5019862;28;20500;-77
2021/03/28 00:46:54;;;;;;;25.02;5.03;;;;;;;2.33;88.08;102533.59;5022972;28;20045;-78
2021/03/28 00:49:33;;;;;;;30.55;4.60;;;;;;;2.33;87.95;102525.84;5017549;28;20050;-76
2021/03/28 00:52:07;;;;;;;21.38;4.85;;;;;;;2.29;88.45;102537.19;5003891;28;20084;-78
2021/03/28 00:54:48;;;;;;;25.80;5.03;;;;;;;2.19;88.72;102528.03;5009329;28;20046;-78
2021/03/28 00:57:34;;;;;;;24.77;5.10;;;;;;;2.02;88.40;102519.06;5001124;28;20042;-80
2021/03/28 01:00:20;;;;;;;24.23;4.88;;;;;;;2.04;88.91;102529.38;5006787;28;20131;-77
2021/03/28 01:03:06;;;;;;;25.05;5.10;;;;;;;2.16;88.98;102528.97;5005002;28;20061;-76
2021/03/28 01:05:43;;;;;;;33.60;4.75;;;;;;;2.18;88.87;102534.94;5033980;28;20057;-78
2021/03/28 01:08:18;;;;;;;28.20;4.93;;;;;;;2.16;88.67;102534.16;5002680;28;20189;-77
2021/03/28 01:11:35;;;;;;;35.05;4.93;;;;;;;2.40;87.86;102526.50;4995477;28;20449;-76
2021/03/28 01:14:22;;;;;;;26.80;5.40;;;;;;;2.44;87.34;102528.09;4951343;28;20046;-79
2021/03/28 01:17:23;;;;;;;27.63;4.53;;;;;;;2.52;87.25;102515.72;5004357;28;20129;-77
2021/03/28 01:19:48;;;;;;;24.17;4.60;;;;;;;2.53;86.93;102531.22;4972373;28;20572;-79
2021/03/28 01:22:42;;;;;;;23.55;4.72;;;;;;;2.58;86.66;102518.13;5010685;28;20038;-78
2021/03/28 01:25:27;;;;;;;23.95;4.45;;;;;;;2.59;86.33;102526.75;5002544;28;20115;-78
2021/03/28 01:28:02;;;;;;;25.63;4.57;;;;;;;2.60;86.13;102518.94;5023458;28;20426;-78
2021/03/28 01:30:42;;;;;;;17.70;4.30;;;;;;;2.52;86.60;102514.00;5020698;28;20077;-77
2021/03/28 01:33:14;;;;;;;17.58;4.13;;;;;;;2.52;86.54;102519.19;4998022;28;20039;-79
2021/03/28 01:35:54;;;;;;;19.27;3.90;;;;;;;2.39;87.37;102517.88;5002973;28;20048;-76
2021/03/28 01:38:37;;;;;;;34.08;5.47;;;;;;;2.24;87.86;102526.13;5014699;28;20042;-80
2021/03/28 01:41:30;;;;;;;24.95;4.78;;;;;;;2.15;88.23;102516.94;5015232;28;20276;-78
2021/03/28 01:44:16;;;;;;;23.90;4.80;;;;;;;2.05;88.64;102516.34;5006819;28;20046;-78
2021/03/28 01:47:07;;;;;;;26.45;4.82;;;;;;;2.05;88.73;102516.34;4983586;28;20050;-78
2021/03/28 01:49:51;;;;;;;22.48;5.07;;;;;;;2.01;89.03;102516.50;5023859;28;20053;-75
2021/03/28 01:52:23;;;;;;;20.33;4.72;;;;;;;2.07;88.85;102516.31;4999148;28;20039;-76
2021/03/28 01:55:00;;;;;;;19.98;5.13;;;;;;;2.08;88.49;102521.44;5026772;28;20105;-81
2021/03/28 01:58:04;;;;;;;27.80;6.50;;;;;;;2.04;88.95;102519.00;5035930;28;20107;-76
2021/03/28 02:00:44;;;;;;;28.40;4.95;;;;;;;2.07;88.36;102524.06;5015363;28;20752;-80
2021/03/28 02:03:35;;;;;;;23.88;4.88;;;;;;;2.07;88.35;102522.34;5016963;28;20085;-77
2021/03/28 02:06:06;;;;;;;28.88;5.22;;;;;;;2.09;88.27;102523.16;4986626;28;20046;-79
2021/03/28 02:08:59;;;;;;;21.35;5.35;;;;;;;2.09;88.25;102512.78;5016627;28;20045;-78
2021/03/28 02:11:57;;;;;;;29.52;4.80;;;;;;;2.16;87.75;102523.78;4997580;28;20046;-78
2021/03/28 02:14:48;;;;;;;27.15;5.20;;;;;;;2.18;87.52;102522.00;4972794;28;20534;-81
2021/03/28 02:17:47;;;;;;;20.58;4.40;;;;;;;2.15;87.29;102522.09;4987646;28;20053;-78
2021/03/28 02:20:22;;;;;;;23.48;5.03;;;;;;;2.13;87.59;102522.16;5009375;28;20072;-77
2021/03/28 02:23:00;;;;;;;28.90;4.95;;;;;;;2.13;87.24;102522.16;4986558;28;20046;-77
2021/03/28 02:26:04;;;;;;;28.85;4.88;;;;;;;2.07;88.04;102524.94;5005280;28;20487;-80
2021/03/28 02:28:49;;;;;;;30.70;4.38;;;;;;;1.91;88.53;102516.78;4999556;28;20051;-81
2021/03/28 02:31:58;;;;;;;21.73;4.25;;;;;;;1.94;88.44;102519.28;4984491;28;20048;-78
2021/03/28 02:34:29;;;;;;;21.17;4.07;;;;;;;1.84;88.95;102523.03;5008220;28;20412;-78
2021/03/28 02:37:37;;;;;;;24.20;5.07;;;;;;;1.82;89.49;102519.66;4986958;28;20045;-79
2021/03/28 02:40:41;;;;;;;31.60;5.10;;;;;;;1.73;89.47;102518.22;5009706;28;20120;-79
2021/03/28 02:43:27;;;;;;;26.90;5.30;;;;;;;1.58;89.73;102512.63;4978701;28;20050;-80
2021/03/28 02:46:17;;;;;;;24.35;4.93;;;;;;;1.52;90.60;102514.47;5007385;28;20046;-82
2021/03/28 02:49:12;;;;;;;26.08;4.60;;;;;;;1.49;90.30;102516.34;4984050;28;20528;-79
2021/03/28 02:51:53;;;;;;;23.52;4.50;;;;;;;1.49;90.59;102516.34;5022983;28;20088;-78
2021/03/28 02:54:56;;;;;;;22.85;5.00;;;;;;;1.57;90.13;102513.53;4989669;28;20038;-77
2021/03/28 02:57:39;;;;;;;24.35;5.22;;;;;;;1.54;90.12;102506.69;5012876;28;20073;-79
2021/03/28 03:00:30;;;;;;;26.92;4.40;;;;;;;1.62;90.05;102509.91;5022369;28;20037;-79
2021/03/28 03:03:15;;;;;;;21.42;4.35;;;;;;;1.57;89.71;102514.38;4996384;28;20073;-78
2021/03/28 03:06:14;;;;;;;22.65;5.18;;;;;;;1.58;90.07;102521.22;4969137;28;20141;-77
2021/03/28 03:09:11;;;;;;;24.85;4.75;;;;;;;1.52;89.82;102513.66;5009759;28;20556;-77
2021/03/28 03:11:46;;;;;;;27.92;5.03;;;;;;;1.50;89.91;102507.66;5007377;28;20041;-78
2021/03/28 03:14:55;;;;;;;22.77;4.50;;;;;;;1.41;90.15;102508.78;5028036;28;20053;-76
2021/03/28 03:17:39;;;;;;;32.05;5.20;;;;;;;1.45;90.24;102515.56;5023504;28;20045;-77
2021/03/28 03:20:44;;;;;;;27.30;4.60;;;;;;;1.37;90.45;102514.94;5014635;28;20424;-77
2021/03/28 03:23:38;;;;;;;18.75;4.38;;;;;;;1.39;90.21;102512.31;4993704;28;20053;-78
2021/03/28 03:26:31;;;;;;;23.85;5.13;;;;;;;1.31;90.96;102499.59;4978842;28;20047;-80
2021/03/28 03:29:21;;;;;;;29.38;4.70;;;;;;;1.45;90.48;102517.28;5005783;28;20050;-78
2021/03/28 03:32:09;;;;;;;26.13;4.45;;;;;;;1.38;90.28;102516.63;5018330;28;20057;-75
2021/03/28 03:34:58;;;;;;;26.25;5.00;;;;;;;1.46;90.17;102526.75;5013723;28;20073;-77
2021/03/28 03:37:43;;;;;;;21.10;5.03;;;;;;;1.43;90.54;102514.78;5014147;28;20037;-77
2021/03/28 03:40:32;;;;;;;24.13;4.93;;;;;;;1.46;90.24;102525.00;5015631;28;20046;-76
2021/03/28 03:43:08;;;;;;;18.25;3.95;;;;;;;1.52;90.20;102522.25;4996835;28;20077;-80
2021/03/28 03:46:02;;;;;;;26.95;4.80;;;;;;;1.47;90.10;102525.84;5025794;28;20061;-76
2021/03/28 03:48:53;;;;;;;21.55;5.00;;;;;;;1.57;89.12;102518.69;5000791;28;20054;-77
2021/03/28 03:51:24;;;;;;;24.55;4.53;;;;;;;1.63;89.29;102527.13;4986191;28;20044;-76
2021/03/28 03:54:08;;;;;;;22.77;4.75;;;;;;;1.52;88.99;102522.25;5027481;28;20065;-78
2021/03/28 03:56:58;;;;;;;14.18;4.57;;;;;;;1.55;89.39;102529.09;4971664;28;20200;-77
2021/03/28 03:59:48;;;;;;;19.85;4.47;;;;;;;1.46;89.77;102525.00;4995051;28;20081;-77
2021/03/28 04:02:43;;;;;;;25.58;5.20;;;;;;;1.50;89.28;102529.19;4996609;28;20072;-77
2021/03/28 04:05:24;;;;;;;19.80;4.15;;;;;;;1.51;89.30;102522.31;5009836;28;20116;-77
2021/03/28 04:08:20;;;;;;;26.98;4.88;;;;;;;1.54;89.16;102515.31;5007828;28;20042;-75
2021/03/28 04:11:05;;;;;;;24.05;4.07;;;;;;;1.57;88.91;102516.13;5013157;28;20208;-76
2021/03/28 04:14:08;;;;;;;16.83;4.10;;;;;;;1.49;89.34;102517.19;5014479;28;20066;-76
2021/03/28 04:16:45;;;;;;;26.08;4.65;;;;;;;1.58;89.14;102523.81;4993053;28;20046;-78
2021/03/28 04:19:25;;;;;;;23.48;4.20;;;;;;;1.52;89.25;102518.81;4993191;28;20120;-78
2021/03/28 04:22:34;;;;;;;23.88;5.10;;;;;;;1.50;89.53;102513.69;5013599;28;20430;-77
2021/03/28 04:25:28;;;;;;;20.02;4.57;;;;;;;1.54;89.01;102512.72;4997188;28;20046;-76
2021/03/28 04:27:59;;;;;;;25.73;4.75;;;;;;;1.63;88.87;102521.09;5015116;28;20064;-76
2021/03/28 04:30:43;;;;;;;26.08;4.65;;;;;;;1.65;88.84;102512.38;4981539;28;20077;-76
2021/03/28 04:33:46;;;;;;;19.00;4.57;;;;;;;1.71;88.59;102507.06;5003575;28;20045;-76
2021/03/28 04:36:33;;;;;;;15.93;4.72;;;;;;;1.70;88.74;102505.34;5001555;28;20042;-76
2021/03/28 04:39:15;;;;;;;20.20;3.90;;;;;;;1.76;88.14;102493.97;5004337;28;20050;-76
2021/03/28 04:42:37;;;;;;;17.52;4.50;;;;;;;1.73;88.47;102500.09;5023347;28;20049;-77
2021/03/28 04:45:39;;;;;;;19.02;3.95;;;;;;;1.72;88.25;102500.97;4942385;28;20094;-77
2021/03/28 04:48:29;;;;;;;23.20;5.15;;;;;;;1.84;88.09;102496.31;5039484;28;20042;-77
2021/03/28 04:51:08;;;;;;;18.55;4.18;;;;;;;1.84;87.50;102485.97;4989068;28;20066;-78
2021/03/28 04:54:01;;;;;;;18.70;4.38;;;;;;;1.86;87.98;102492.78;5051875;28;20044;-74
2021/03/28 04:56:48;;;;;;;22.88;4.43;;;;;;;1.86;87.79;102490.19;5002572;28;20034;-76
2021/03/28 04:59:32;;;;;;;20.25;4.32;;;;;;;1.82;87.91;102483.44;4995243;28;20058;-76
2021/03/28 05:02:13;;;;;;;24.30;4.60;;;;;;;1.82;87.95;102487.75;4986494;28;20047;-77
2021/03/28 05:05:07;;;;;;;21.23;4.68;;;;;;;1.83;87.75;102485.13;5001032;28;20084;-76
2021/03/28 05:07:48;;;;;;;26.30;5.03;;;;;;;1.80;88.07;102486.97;5004404;28;20034;-76
2021/03/28 05:10:13;;;;;;;19.77;4.60;;;;;;;1.77;87.82;102480.13;5004977;28;20408;-77
2021/03/28 05:12:58;;;;;;;14.32;4.00;;;;;;;1.82;88.13;102480.84;5011940;28;20056;-78
2021/03/28 05:15:45;;;;;;;17.17;3.72;;;;;;;1.89;87.49;102473.75;4998481;28;20053;-77
2021/03/28 05:18:29;;;;;;;18.65;3.97;;;;;;;1.98;87.06;102486.41;5004603;28;20050;-76
2021/03/28 05:21:27;;;;;;;22.40;4.30;;;;;;;1.97;86.78;102474.34;5003463;28;20042;-76
2021/03/28 05:24:17;;;;;;;18.92;3.85;;;;;;;1.93;86.81;102475.34;5017123;28;20038;-76
2021/03/28 05:27:09;;;;;;;25.45;4.57;;;;;;;1.97;87.30;102469.16;5021264;28;20045;-79
2021/03/28 05:30:04;;;;;;;20.58;4.53;;;;;;;1.99;86.89;102469.97;4969748;28;20126;-79
2021/03/28 05:32:49;;;;;;;19.85;3.90;;;;;;;2.06;87.04;102468.88;4997948;28;20044;-77
2021/03/28 05:35:34;;;;;;;21.58;4.28;;;;;;;2.08;86.60;102474.00;5019910;28;20065;-79
2021/03/28 05:38:22;;;;;;;23.02;4.30;;;;;;;2.13;86.22;102464.34;5032804;28;20053;-78
2021/03/28 05:41:12;;;;;;;21.92;4.15;;;;;;;2.16;86.34;102468.56;5013761;28;20056;-77
2021/03/28 05:43:55;;;;;;;21.20;3.83;;;;;;;2.11;86.01;102464.41;5004369;28;20068;-76
2021/03/28 05:46:32;;;;;;;25.80;4.88;;;;;;;2.23;85.91;102465.75;5003796;28;20060;-76
2021/03/28 05:49:24;;;;;;;17.17;3.88;;;;;;;2.33;85.65;102455.91;4987157;28;20057;-77
2021/03/28 05:51:59;;;;;;;17.35;4.22;;;;;;;2.41;85.70;102453.06;5029917;28;20045;-77
2021/03/28 05:54:51;;;;;;;22.40;3.55;;;;;;;2.47;84.73;102453.72;5030583;28;20042;-78
2021/03/28 05:57:52;;;;;;;17.75;3.45;;;;;;;2.52;84.74;102445.78;5004833;28;20092;-76
2021/03/28 06:00:29;;;;;;;15.73;3.95;;;;;;;2.51;85.18;102452.72;4950874;28;20067;-76
2021/03/28 06:03:10;;;;;;;12.95;3.60;;;;;;;2.50;84.58;102443.25;5023376;28;20046;-79
2021/03/28 06:06:13;;;;;;;20.25;3.90;;;;;;;2.62;84.46;102454.94;5003597;28;20045;-77
2021/03/28 06:08:47;;;;;;;17.67;4.22;;;;;;;2.71;83.38;102458.94;5029921;28;20045;-80
2021/03/28 06:11:36;;;;;;;19.58;3.90;;;;;;;2.74;83.09;102456.25;5023726;28;20038;-77
2021/03/28 06:14:23;;;;;;;16.70;3.72;;;;;;;2.72;83.25;102468.41;5008447;28;20042;-77
2021/03/28 06:16:57;;;;;;;20.20;4.18;;;;;;;2.83;83.35;102466.31;5004696;28;20080;-76
2021/03/28 06:19:51;;;;;;;20.20;4.13;;;;;;;2.96;81.90;102471.03;5025726;28;20037;-80
2021/03/28 06:22:35;;;;;;;14.98;4.05;;;;;;;3.03;82.12;102472.50;5035560;28;20052;-77
2021/03/28 06:25:39;;;;;;;14.43;3.47;;;;;;;3.08;81.45;102476.63;5023082;28;20091;-76
2021/03/28 06:28:23;;;;;;;20.67;3.72;;;;;;;3.16;81.27;102499.69;5034106;28;20042;-79
2021/03/28 06:31:27;;;;;;;19.08;3.92;;;;;;;3.18;81.05;102497.88;5030535;28;20057;-76
2021/03/28 06:34:30;;;;;;;15.77;4.05;;;;;;;3.24;81.79;102495.09;5004305;28;20603;-80
2021/03/28 06:37:33;;;;;;;19.75;4.07;;;;;;;3.31;81.41;102493.09;5033929;28;20059;-75
2021/03/28 06:40:17;;;;;;;15.70;3.42;;;;;;;3.35;81.21;102481.69;5018020;28;20042;-79
2021/03/28 06:43:03;;;;;;;19.25;4.22;;;;;;;3.38;81.74;102475.56;5017297;28;20037;-77
2021/03/28 06:45:47;;;;;;;18.85;4.30;;;;;;;3.51;81.55;102492.38;5001226;28;20054;-79
2021/03/28 06:48:20;;;;;;;20.65;4.20;;;;;;;3.55;80.07;102499.13;5012501;28;20046;-78
2021/03/28 06:51:06;;;;;;;17.90;4.18;;;;;;;3.57;80.48;102479.16;5018528;28;20042;-78
2021/03/28 06:54:07;;;;;;;20.85;4.15;;;;;;;3.65;80.50;102477.09;5020062;28;20088;-77
2021/03/28 06:56:48;;;;;;;26.35;4.80;;;;;;;3.62;81.21;102485.03;5003502;28;20053;-77
2021/03/28 06:59:28;;;;;;;20.67;4.20;;;;;;;3.62;81.52;102477.25;4982758;28;20033;-76
2021/03/28 07:02:24;;;;;;;22.17;4.13;;;;;;;3.81;80.57;102481.72;5015805;28;20042;-81
2021/03/28 07:05:08;;;;;;;22.65;4.60;;;;;;;3.76;81.46;102471.50;5018379;28;20062;-77
2021/03/28 07:08:12;;;;;;;17.67;4.15;;;;;;;4.06;79.46;102481.59;5011036;28;20060;-77
2021/03/28 07:11:14;;;;;;;19.35;4.60;;;;;;;4.27;78.75;102475.50;4950689;28;20053;-77
2021/03/28 07:14:21;;;;;;;21.25;4.97;;;;;;;4.54;77.35;102477.88;4939190;28;20058;-78
2021/03/28 07:17:38;;;;;;;22.33;4.70;;;;;;;4.74;76.46;102474.41;5012680;28;20069;-79
2021/03/28 07:20:23;;;;;;;20.05;4.45;;;;;;;4.82;75.37;102476.69;5020818;28;20124;-78
2021/03/28 07:23:32;;;;;;;23.33;4.57;;;;;;;4.81;75.94;102473.25;5030772;28;20146;-77
2021/03/28 07:26:19;;;;;;;20.50;5.13;;;;;;;4.88;75.99;102474.69;5013859;28;20139;-77
2021/03/28 07:29:10;;;;;;;20.38;4.32;;;;;;;4.91;76.21;102467.66;5016548;28;20061;-76
2021/03/28 07:32:06;;;;;;;16.17;3.92;;;;;;;4.98;75.57;102479.47;5000266;28;20073;-78
2021/03/28 07:35:23;;;;;;;18.52;4.63;;;;;;;5.11;75.89;102474.59;4985352;28;20038;-78
2021/03/28 07:38:27;;;;;;;19.52;5.00;;;;;;;5.19;75.73;102481.09;4979563;28;20058;-78
2021/03/28 07:41:11;;;;;;;17.27;4.55;;;;;;;5.26;76.02;102477.31;5035399;28;20058;-76
2021/03/28 07:44:15;;;;;;;18.38;4.50;;;;;;;5.25;75.35;102482.59;5002582;28;20049;-78
2021/03/28 07:47:10;;;;;;;17.70;4.57;;;;;;;5.33;75.12;102472.69;5002057;28;20045;-77
2021/03/28 07:50:06;;;;;;;18.10;4.43;;;;;;;5.45;76.04;102479.09;5008656;28;20053;-78
2021/03/28 07:52:56;;;;;;;16.52;4.68;;;;;;;5.54;75.07;102476.06;5027304;28;20065;-76
2021/03/28 07:55:28;;;;;;;17.00;4.70;;;;;;;5.56;74.59;102476.84;5005983;28;20117;-77
2021/03/28 07:58:16;;;;;;;16.50;4.37;;;;;;;5.61;74.47;102464.47;5021046;28;20045;-76
2021/03/28 08:00:54;;;;;;;17.35;4.10;;;;;;;5.68;74.94;102472.81;5012433;28;20057;-76
2021/03/28 08:03:42;;;;;;;19.40;4.38;;;;;;;5.84;74.88;102476.38;4991455;28;20045;-76
2021/03/28 08:06:35;;;;;;;21.17;4.70;;;;;;;5.96;73.57;102463.72;4991916;28;20539;-76
2021/03/28 08:09:33;;;;;;;14.25;3.90;;;;;;;6.02;73.44;102456.44;5004005;28;20056;-76
2021/03/28 08:12:29;;;;;;;17.40;4.50;;;;;;;6.09;72.35;102457.00;4996359;28;20076;-77
2021/03/28 08:15:03;;;;;;;15.80;4.43;;;;;;;6.20;74.42;102459.91;5025350;28;20042;-77
2021/03/28 08:17:46;;;;;;;19.27;4.53;;;;;;;6.26;72.60;102452.72;5011999;28;20061;-77
2021/03/28 08:21:00;;;;;;;15.95;4.30;;;;;;;6.31;73.07;102446.34;4997443;28;20554;-76
2021/03/28 08:24:07;;;;;;;18.00;3.97;;;;;;;6.49;72.79;102444.56;4936233;29;20062;-76
2021/03/28 08:26:40;;;;;;;17.30;4.78;;;;;;;6.58;72.47;102453.69;4967487;28;20081;-76
2021/03/28 08:29:26;;;;;;;16.38;4.35;;;;;;;6.62;74.14;102440.41;5000715;28;20044;-77
2021/03/28 08:32:20;;;;;;;19.70;4.53;;;;;;;6.66;74.35;102435.88;4993238;28;20045;-77
2021/03/28 08:35:05;;;;;;;15.63;4.20;;;;;;;6.73;72.85;102437.25;4976193;28;20093;-76
2021/03/28 08:37:45;;;;;;;17.20;4.00;;;;;;;6.87;72.79;102435.69;5011069;28;20121;-75
2021/03/28 08:40:38;;;;;;;18.80;4.50;;;;;;;7.04;72.40;102433.00;5002811;28;20042;-76
2021/03/28 08:43:47;;;;;;;16.70;3.88;;;;;;;7.41;72.98;102433.63;5024750;28;20435;-77
2021/03/28 08:46:25;;;;;;;20.95;4.72;;;;;;;7.66;72.59;102427.03;5007235;28;20045;-76
2021/03/28 08:49:08;;;;;;;18.50;4.22;;;;;;;7.80;70.88;102438.41;5010027;28;20121;-76
2021/03/28 08:51:37;;;;;;;;;;;;;;;8.02;71.00;102431.09;5007975;28;20042;-77
2021/03/28 08:54:10;;;;;;;14.05;3.80;;;;;;;8.11;71.19;102417.50;5019661;28;19918;-78
2021/03/28 08:56:50;;;;;;;14.45;4.13;;;;;;;8.00;70.24;102423.34;5011812;28;20041;-76
2021/03/28 08:59:38;;;;;;;16.00;3.50;;;;;;;8.01;70.76;102421.59;5016091;28;20030;-76
2021/03/28 09:02:06;;;;;;;17.33;4.00;;;;;;;8.10;70.08;102434.97;5005336;28;20052;-78
2021/03/28 09:04:46;;;;;;;17.73;3.50;;;;;;;8.08;71.12;102434.22;4977314;28;20074;-76
2021/03/28 09:07:27;;;;;;;16.05;4.05;;;;;;;8.18;70.62;102434.53;5005238;28;20056;-81
2021/03/28 09:10:01;;;;;;;22.58;4.20;;;;;;;8.15;71.14;102429.47;5007425;28;20078;-78
2021/03/28 09:12:36;;;;;;;17.92;4.55;;;;;;;8.19;70.81;102437.06;5022024;28;20604;-77
2021/03/28 09:15:14;;;;;;;13.30;3.90;;;;;;;8.33;70.90;102433.63;5014839;28;20423;-79
2021/03/28 09:17:58;;;;;;;18.70;4.35;;;;;;;8.46;70.55;102430.31;4978121;28;20045;-78
2021/03/28 09:20:34;;;;;;;13.63;3.90;;;;;;;8.48;70.15;102426.66;5011688;28;20077;-76
2021/03/28 09:23:14;;;;;;;11.38;3.65;;;;;;;8.67;69.75;102420.34;5019568;28;20038;-77
2021/03/28 09:25:59;;;;;;;11.32;3.38;;;;;;;8.57;69.26;102423.50;4993402;28;20058;-78
2021/03/28 09:28:45;;;;;;;19.00;3.28;;;;;;;8.46;68.69;102417.25;5009108;28;20064;-76
2021/03/28 09:31:32;;;;;;;16.27;3.67;;;;;;;8.40;69.68;102418.41;5010215;28;20523;-79
2021/03/28 09:34:25;;;;;;;16.45;3.67;;;;;;;8.77;68.89;102417.03;4983191;28;20583;-76
2021/03/28 09:37:18;;;;;;;13.27;3.47;;;;;;;9.03;68.94;102416.41;5004152;28;20044;-76
2021/03/28 09:39:54;;;;;;;15.60;3.85;;;;;;;9.03;67.72;102419.84;4991813;28;20129;-76
2021/03/28 09:42:47;;;;;;;13.38;3.38;;;;;;;9.35;67.51;102406.50;5009340;28;20073;-77
2021/03/28 09:45:50;;;;;;;13.30;3.00;;;;;;;9.80;67.31;102412.34;5007693;28;20056;-76
2021/03/28 09:48:27;;;;;;;10.15;2.80;;;;;;;9.64;65.64;102401.16;5019316;28;20038;-77
2021/03/28 09:51:26;;;;;;;13.07;3.33;;;;;;;9.51;67.32;102401.97;5009841;28;20041;-76
2021/03/28 09:54:33;;;;;;;12.63;2.88;;;;;;;9.57;65.59;102402.50;5016667;28;20050;-76
2021/03/28 09:57:22;;;;;;;10.80;3.17;;;;;;;9.51;65.38;102406.34;4956188;28;20053;-77
2021/03/28 10:00:18;;;;;;;14.35;3.53;;;;;;;9.44;66.51;102410.34;5009261;28;20057;-76
2021/03/28 10:03:09;;;;;;;16.02;3.03;;;;;;;9.43;64.42;102406.03;4992803;28;20097;-77
2021/03/28 10:05:36;;;;;;;16.33;3.33;;;;;;;9.57;67.54;102403.38;4988847;28;20054;-78
2021/03/28 10:08:09;;;;;;;12.95;3.20;;;;;;;9.69;64.20;102399.09;4988343;28;20101;-77
2021/03/28 10:10:56;;;;;;;8.73;3.03;;;;;;;9.74;65.98;102404.88;4999783;28;20045;-76
2021/03/28 10:13:32;;;;;;;11.77;2.97;;;;;;;9.70;64.77;102398.13;4989607;28;20460;-78
2021/03/28 10:16:00;;;;;;;9.50;2.67;;;;;;;9.51;64.23;102394.13;5026617;28;20034;-77
2021/03/28 10:18:50;;;;;;;11.63;2.90;;;;;;;9.33;65.69;102401.38;5020118;28;20512;-78
2021/03/28 10:21:27;;;;;;;13.73;3.08;;;;;;;9.26;65.26;102404.47;4976764;28;20065;-76
2021/03/28 10:24:11;;;;;;;13.38;3.20;;;;;;;9.26;64.99;102407.09;4999523;28;20038;-76
2021/03/28 10:27:19;;;;;;;8.90;2.60;;;;;;;9.43;65.21;102399.00;4975871;28;20042;-79
2021/03/28 10:30:20;;;;;;;10.32;3.22;;;;;;;9.50;65.75;102396.84;5000678;28;20042;-77
2021/03/28 10:33:29;;;;;;;12.38;3.30;;;;;;;9.57;64.90;102398.13;4969474;28;20058;-77
2021/03/28 10:36:07;;;;;;;13.98;3.22;;;;;;;9.70;63.78;102398.13;4968362;28;20042;-77
2021/03/28 10:38:47;;;;;;;11.68;2.72;;;;;;;9.80;65.21;102391.38;5006658;28;20041;-75
2021/03/28 10:41:31;;;;;;;13.88;2.92;;;;;;;9.94;64.47;102393.94;4991710;28;20045;-77
2021/03/28 10:44:13;;;;;;;11.48;3.00;;;;;;;9.89;64.11;102392.56;5007004;28;20049;-77
2021/03/28 10:47:08;;;;;;;14.02;3.13;;;;;;;9.89;64.96;102380.28;5011535;28;20149;-77
2021/03/28 10:50:10;;;;;;;11.38;2.70;;;;;;;9.98;64.96;102386.69;5006909;28;20049;-74
2021/03/28 10:53:32;;;;;;;13.65;2.75;;;;;;;9.91;63.33;102383.63;5010426;28;20129;-76
2021/03/28 10:56:44;;;;;;;11.00;2.92;;;;;;;9.96;64.98;102379.88;4997942;28;20046;-75
2021/03/28 10:59:40;;;;;;;8.80;2.75;;;;;;;10.26;64.55;102374.34;5014261;28;20067;-76
2021/03/28 11:02:37;;;;;;;13.80;3.25;;;;;;;10.19;63.32;102380.94;5006299;28;20423;-77
2021/03/28 11:05:44;;;;;;;8.77;2.80;;;;;;;10.18;64.68;102372.22;5007106;28;20042;-77
2021/03/28 11:08:44;;;;;;;11.85;2.78;;;;;;;10.06;64.37;102373.91;5010257;28;20903;-75
2021/03/28 11:11:19;;;;;;;15.10;3.05;;;;;;;9.97;63.71;102357.97;4992435;28;20044;-76
2021/03/28 11:14:13;;;;;;;13.43;2.90;;;;;;;10.06;63.95;102363.44;5004064;28;20038;-75
2021/03/28 11:16:56;;;;;;;14.85;2.60;;;;;;;9.97;64.55;102361.41;4997100;28;20492;-75
2021/03/28 11:19:39;;;;;;;12.38;2.92;;;;;;;9.90;65.13;102358.34;4980427;28;20052;-78
2021/03/28 11:22:33;;;;;;;16.88;3.63;;;;;;;9.82;64.69;102362.44;4996079;28;20058;-77
2021/03/28 11:25:18;;;;;;;12.13;2.75;;;;;;;9.83;65.06;102362.34;4997643;28;20049;-77
2021/03/28 11:28:26;;;;;;;12.63;2.72;;;;;;;9.84;65.24;102352.69;4991549;28;20504;-76
2021/03/28 11:31:14;;;;;;;17.80;3.45;;;;;;;10.00;65.14;102357.75;5008779;28;20103;-75
2021/03/28 11:33:55;;;;;;;14.52;2.70;;;;;;;9.97;65.57;102353.56;4990572;28;20056;-79
2021/03/28 11:36:27;;;;;;;10.88;2.90;;;;;;;9.98;65.13;102354.38;5007189;28;20073;-74
2021/03/28 11:39:21;;;;;;;15.88;3.45;;;;;;;10.01;65.08;102351.56;4973631;28;20042;-77
2021/03/28 11:41:52;;;;;;;14.73;3.20;;;;;;;9.99;65.19;102341.19;4997556;28;20085;-79
2021/03/28 11:44:38;;;;;;;11.57;2.63;;;;;;;10.06;65.34;102339.84;4981968;28;20044;-77
2021/03/28 11:47:26;;;;;;;9.55;2.83;;;;;;;10.19;64.52;102342.47;5014406;28;20473;-74
2021/03/28 11:49:58;;;;;;;12.27;2.90;;;;;;;10.33;64.97;102339.75;5001384;28;20065;-77
2021/03/28 11:52:30;;;;;;;9.60;2.65;;;;;;;10.36;64.20;102335.22;5006765;28;20057;-76
2021/03/28 11:55:08;;;;;;;11.10;2.40;;;;;;;10.19;64.08;102333.72;4996450;28;20568;-76
2021/03/28 11:57:34;;;;;;;21.98;2.92;;;;;;;10.12;64.99;102347.28;5012682;28;20108;-75
2021/03/28 12:00:22;;;;;;;13.20;2.67;;;;;;;10.22;64.31;102329.13;5015873;28;20069;-77
2021/03/28 12:03:18;;;;;;;11.35;2.88;;;;;;;10.29;65.27;102333.00;5034978;28;20134;-79
2021/03/28 12:06:04;;;;;;;9.57;2.53;;;;;;;10.39;64.64;102330.63;5001537;28;20049;-77
2021/03/28 12:08:56;;;;;;;12.13;3.03;;;;;;;10.52;64.49;102328.81;5018839;28;20033;-76
2021/03/28 12:11:43;;;;;;;7.55;2.55;;;;;;;10.53;64.09;102334.91;5027241;28;20044;-79
2021/03/28 12:14:08;;;;;;;14.95;2.90;;;;;;;10.45;64.90;102326.72;5016470;28;20068;-74
2021/03/28 12:17:08;;;;;;;9.45;2.45;;;;;;;10.35;64.58;102333.56;5016094;28;20042;-76
2021/03/28 12:19:47;;;;;;;15.35;2.75;;;;;;;10.55;64.82;102332.16;4982927;28;20044;-79
2021/03/28 12:22:23;;;;;;;11.68;2.72;;;;;;;10.71;64.56;102332.78;4992912;28;20037;-77
2021/03/28 12:25:04;;;;;;;15.40;2.65;;;;;;;10.78;63.99;102339.28;4987031;28;20085;-77
2021/03/28 12:27:47;;;;;;;13.80;2.88;;;;;;;10.80;64.29;102332.13;4997878;28;20045;-78
2021/03/28 12:30:28;;;;;;;11.07;2.53;;;;;;;10.84;64.37;102327.50;4974887;28;20054;-75
2021/03/28 12:32:57;;;;;;;12.90;2.97;;;;;;;10.74;63.97;102322.06;5015809;28;20053;-76
2021/03/28 12:35:34;;;;;;;12.93;2.40;;;;;;;10.69;64.73;102318.91;5002506;28;20049;-76
2021/03/28 12:38:26;;;;;;;15.18;2.70;;;;;;;10.54;64.01;102322.63;5010963;28;20056;-76
2021/03/28 12:41:13;;;;;;;13.82;2.75;;;;;;;10.37;65.63;102327.25;4997538;28;20301;-77
2021/03/28 12:43:48;;;;;;;18.60;2.55;;;;;;;10.39;64.87;102321.91;5019376;28;20049;-77
2021/03/28 12:46:28;;;;;;;11.75;2.78;;;;;;;10.39;65.04;102321.91;4996729;28;20062;-76
2021/03/28 12:49:19;;;;;;;15.52;3.08;;;;;;;10.37;65.61;102313.31;4998458;28;20160;-78
2021/03/28 12:51:59;;;;;;;11.07;2.67;;;;;;;10.30;66.13;102316.38;5007758;28;20061;-75
2021/03/28 12:54:30;;;;;;;12.90;3.03;;;;;;;10.16;66.45;102320.84;5010966;28;20416;-77
2021/03/28 12:57:02;;;;;;;12.75;2.53;;;;;;;10.07;68.18;102328.38;4983234;28;20041;-78